VIR905 EGLL-LFPG
Flight info
| Callsign | VIR905 |
|---|---|
| Flight time | N/A |
| Altitude | 25000 |
| Route | MAXIT Y803 MID L612 BOGNA DCT HARDY UM605 BIBAX |
| Aircraft | A343/H-SDE2E3FGHIJ4J5M1RWXY/LB1D1 |
Departure
| Time | 2026-05-03 20:15 |
|---|---|
| Airport | London Heathrow Airport (EGLL) |
Arrival
| Time | N/A |
|---|---|
| Airport | Charles de Gaulle International Airport (LFPG) |
| Time | Latitude | Longitude | Altitude | Speed | Heading |
|---|---|---|---|---|---|
| 2026-05-03 20:15 | 51.21511 | -0.57112 | 13152 ft | 359 kts | 191° |
| 2026-05-03 20:15 | 51.19048 | -0.57888 | 13853 ft | 365 kts | 192° |
| 2026-05-03 20:15 | 51.16540 | -0.58713 | 14530 ft | 370 kts | 192° |
| 2026-05-03 20:15 | 51.14002 | -0.59569 | 15173 ft | 375 kts | 192° |
| 2026-05-03 20:16 | 51.11428 | -0.60444 | 15795 ft | 380 kts | 192° |
| 2026-05-03 20:16 | 51.08802 | -0.61156 | 16389 ft | 385 kts | 185° |
| 2026-05-03 20:16 | 51.06114 | -0.61100 | 16958 ft | 389 kts | 173° |
| 2026-05-03 20:16 | 51.03484 | -0.60033 | 17516 ft | 393 kts | 160° |
| 2026-05-03 20:17 | 51.00991 | -0.58173 | 18053 ft | 398 kts | 151° |
| 2026-05-03 20:17 | 50.98625 | -0.55864 | 18561 ft | 401 kts | 147° |
| 2026-05-03 20:17 | 50.96325 | -0.53338 | 19050 ft | 405 kts | 145° |
| 2026-05-03 20:17 | 50.94018 | -0.50710 | 19512 ft | 409 kts | 144° |
| 2026-05-03 20:18 | 50.91728 | -0.48115 | 19942 ft | 412 kts | 145° |
| 2026-05-03 20:18 | 50.89366 | -0.45490 | 20356 ft | 416 kts | 146° |
| 2026-05-03 20:18 | 50.86967 | -0.42878 | 20747 ft | 419 kts | 146° |
| 2026-05-03 20:18 | 50.84543 | -0.40281 | 21122 ft | 422 kts | 146° |
| 2026-05-03 20:19 | 50.82101 | -0.37689 | 21479 ft | 425 kts | 146° |
| 2026-05-03 20:19 | 50.79630 | -0.35082 | 21827 ft | 428 kts | 147° |
| 2026-05-03 20:19 | 50.77140 | -0.32461 | 22154 ft | 430 kts | 147° |
| 2026-05-03 20:19 | 50.74642 | -0.29834 | 22464 ft | 433 kts | 147° |
| 2026-05-03 20:20 | 50.72232 | -0.26982 | 22751 ft | 435 kts | 139° |
| 2026-05-03 20:20 | 50.70134 | -0.23510 | 23026 ft | 438 kts | 128° |
| 2026-05-03 20:20 | 50.68464 | -0.19478 | 23293 ft | 441 kts | 120° |
| 2026-05-03 20:20 | 50.66996 | -0.15213 | 23542 ft | 443 kts | 117° |
| 2026-05-03 20:21 | 50.65631 | -0.10852 | 23782 ft | 445 kts | 116° |
| 2026-05-03 20:21 | 50.64323 | -0.06491 | 24011 ft | 447 kts | 115° |
| 2026-05-03 20:21 | 50.62997 | -0.02036 | 24229 ft | 449 kts | 115° |
| 2026-05-03 20:21 | 50.61661 | 0.02420 | 24429 ft | 451 kts | 116° |
| 2026-05-03 20:22 | 50.60305 | 0.06885 | 24627 ft | 453 kts | 116° |
| 2026-05-03 20:22 | 50.58937 | 0.11338 | 24818 ft | 454 kts | 116° |
| 2026-05-03 20:22 | 50.57545 | 0.15830 | 24970 ft | 456 kts | 116° |
| 2026-05-03 20:22 | 50.56140 | 0.20340 | 25002 ft | 461 kts | 116° |
| 2026-05-03 20:23 | 50.54713 | 0.24903 | 25000 ft | 466 kts | 116° |
| 2026-05-03 20:23 | 50.53275 | 0.29492 | 25000 ft | 469 kts | 116° |
| 2026-05-03 20:23 | 50.51832 | 0.34092 | 25000 ft | 470 kts | 116° |
| 2026-05-03 20:23 | 50.50384 | 0.38702 | 25000 ft | 470 kts | 116° |
| 2026-05-03 20:24 | 50.48932 | 0.43310 | 25000 ft | 470 kts | 117° |
| 2026-05-03 20:24 | 50.47262 | 0.47639 | 25000 ft | 469 kts | 127° |
| 2026-05-03 20:24 | 50.45088 | 0.51431 | 25001 ft | 469 kts | 136° |
| 2026-05-03 20:24 | 50.42664 | 0.54875 | 25000 ft | 469 kts | 140° |
| 2026-05-03 20:25 | 50.40149 | 0.58152 | 25000 ft | 469 kts | 141° |
| 2026-05-03 20:25 | 50.37602 | 0.61327 | 25000 ft | 469 kts | 142° |
| 2026-05-03 20:25 | 50.35029 | 0.64484 | 25000 ft | 469 kts | 142° |
| 2026-05-03 20:25 | 50.32462 | 0.67640 | 25000 ft | 469 kts | 142° |
| 2026-05-03 20:26 | 50.29897 | 0.70804 | 25000 ft | 469 kts | 142° |
| 2026-05-03 20:26 | 50.27343 | 0.73969 | 25000 ft | 469 kts | 142° |
| 2026-05-03 20:26 | 50.24790 | 0.77144 | 25000 ft | 469 kts | 142° |
| 2026-05-03 20:26 | 50.22237 | 0.80324 | 25000 ft | 469 kts | 142° |
| 2026-05-03 20:27 | 50.21301 | 0.81491 | 25000 ft | 469 kts | 142° |
| 2026-05-03 20:27 | 50.18758 | 0.84661 | 25000 ft | 469 kts | 142° |
| 2026-05-03 20:27 | 50.16207 | 0.87831 | 25000 ft | 469 kts | 142° |
| 2026-05-03 20:27 | 50.13623 | 0.91042 | 25000 ft | 469 kts | 142° |
| 2026-05-03 20:28 | 50.11101 | 0.94172 | 25000 ft | 469 kts | 142° |
| 2026-05-03 20:28 | 50.08551 | 0.97331 | 24967 ft | 469 kts | 142° |
| 2026-05-03 20:28 | 50.05990 | 1.00374 | 24340 ft | 460 kts | 147° |
| 2026-05-03 20:28 | 50.03202 | 1.02787 | 23574 ft | 453 kts | 154° |
| 2026-05-03 20:29 | 50.00399 | 1.04902 | 23104 ft | 441 kts | 155° |
| 2026-05-03 20:29 | 49.97659 | 1.06942 | 22659 ft | 436 kts | 155° |
| 2026-05-03 20:29 | 49.94924 | 1.08982 | 22213 ft | 434 kts | 154° |
| 2026-05-03 20:29 | 49.92207 | 1.11012 | 21770 ft | 432 kts | 154° |
| 2026-05-03 20:30 | 49.89510 | 1.13031 | 21331 ft | 428 kts | 154° |
| 2026-05-03 20:30 | 49.86832 | 1.15034 | 20894 ft | 425 kts | 154° |
| 2026-05-03 20:30 | 49.84182 | 1.17016 | 20463 ft | 422 kts | 154° |
| 2026-05-03 20:30 | 49.81553 | 1.18981 | 20035 ft | 418 kts | 154° |
| 2026-05-03 20:31 | 49.78943 | 1.20930 | 19609 ft | 415 kts | 154° |
| 2026-05-03 20:31 | 49.76350 | 1.22863 | 19187 ft | 412 kts | 154° |
| 2026-05-03 20:31 | 49.73778 | 1.24779 | 18768 ft | 409 kts | 154° |
| 2026-05-03 20:31 | 49.71227 | 1.26677 | 18353 ft | 406 kts | 154° |
| 2026-05-03 20:32 | 49.68690 | 1.28562 | 17939 ft | 402 kts | 154° |
| 2026-05-03 20:32 | 49.66177 | 1.30428 | 17530 ft | 400 kts | 154° |
| 2026-05-03 20:32 | 49.63679 | 1.32280 | 17124 ft | 397 kts | 155° |
| 2026-05-03 20:32 | 49.61203 | 1.34114 | 16721 ft | 394 kts | 155° |
| 2026-05-03 20:33 | 49.59571 | 1.35322 | 16456 ft | 392 kts | 155° |
| 2026-05-03 20:33 | 49.56329 | 1.37718 | 15928 ft | 388 kts | 155° |
| 2026-05-03 20:33 | 49.53899 | 1.39512 | 15532 ft | 385 kts | 155° |
| 2026-05-03 20:33 | 49.51489 | 1.41289 | 15140 ft | 383 kts | 155° |
| 2026-05-03 20:34 | 49.49097 | 1.43051 | 14751 ft | 380 kts | 155° |
| 2026-05-03 20:34 | 49.47491 | 1.44232 | 14490 ft | 378 kts | 155° |
| 2026-05-03 20:34 | 49.45119 | 1.45976 | 14104 ft | 376 kts | 155° |
| 2026-05-03 20:34 | 49.42772 | 1.47700 | 13722 ft | 373 kts | 155° |